createdAt,value
2019-05-25T00:00:11.836Z,1.40
2019-05-25T00:02:57.861Z,1.20
2019-05-25T00:05:43.976Z,1.23
2019-05-25T00:08:30.407Z,1.33
2019-05-25T00:11:16.095Z,1.10
2019-05-25T00:14:02.328Z,1.13
2019-05-25T00:16:48.516Z,1.30
2019-05-25T00:19:34.725Z,1.40
2019-05-25T00:22:20.939Z,1.30
2019-05-25T00:25:07.152Z,1.50
2019-05-25T00:27:53.207Z,1.20
2019-05-25T00:30:39.333Z,1.40
2019-05-25T00:33:25.397Z,1.50
2019-05-25T00:36:11.653Z,1.40
2019-05-25T00:38:57.673Z,1.60
2019-05-25T00:41:43.871Z,1.40
2019-05-25T00:44:30.086Z,1.50
2019-05-25T00:47:16.276Z,1.63
2019-05-25T00:50:02.666Z,1.60
2019-05-25T00:52:48.705Z,1.30
2019-05-25T00:55:34.911Z,1.40
2019-05-25T00:58:21.196Z,1.47
2019-05-25T01:01:07.409Z,1.40
2019-05-25T01:03:53.592Z,1.70
2019-05-25T01:06:39.668Z,1.53
2019-05-25T01:09:25.744Z,1.33
2019-05-25T01:12:11.876Z,1.40
2019-05-25T01:14:58.164Z,1.50
2019-05-25T01:17:44.288Z,1.30
2019-05-25T01:20:30.524Z,1.43
2019-05-25T01:23:16.173Z,1.47
2019-05-25T01:26:02.241Z,1.30
2019-05-25T01:28:48.345Z,1.23
2019-05-25T01:31:34.499Z,1.77
2019-05-25T01:34:20.592Z,1.30
2019-05-25T01:37:06.850Z,1.50
2019-05-25T01:39:53.000Z,1.60
2019-05-25T01:42:39.192Z,1.20
2019-05-25T01:45:25.494Z,1.27
2019-05-25T01:48:12.003Z,1.40
2019-05-25T01:50:57.931Z,1.50
2019-05-25T01:53:44.084Z,1.53
2019-05-25T01:56:30.264Z,1.60
2019-05-25T01:59:16.373Z,1.50
2019-05-25T02:02:02.025Z,1.40
2019-05-25T02:04:48.032Z,1.50
2019-05-25T02:07:34.901Z,1.60
2019-05-25T02:10:20.972Z,1.50
2019-05-25T02:13:07.095Z,1.37
2019-05-25T02:15:53.187Z,1.57
2019-05-25T02:18:39.326Z,1.20
2019-05-25T02:21:24.937Z,1.50
2019-05-25T02:24:11.156Z,1.70
2019-05-25T02:26:57.080Z,1.67
2019-05-25T02:29:43.208Z,1.33
2019-05-25T02:32:29.305Z,1.67
2019-05-25T02:35:23.177Z,1.37
2019-05-25T02:38:09.296Z,1.40
2019-05-25T02:40:55.513Z,1.30
2019-05-25T02:43:41.711Z,1.60
2019-05-25T02:46:27.568Z,1.20
2019-05-25T02:49:13.856Z,1.50
2019-05-25T02:51:59.955Z,1.40
2019-05-25T02:54:46.116Z,1.30
2019-05-25T02:57:31.983Z,1.30
2019-05-25T03:00:20.574Z,1.60
2019-05-25T03:03:06.312Z,1.40
2019-05-25T03:05:52.557Z,1.40
2019-05-25T03:08:38.998Z,1.43
2019-05-25T03:11:25.632Z,1.50
2019-05-25T03:14:11.560Z,1.50
2019-05-25T03:16:57.611Z,1.30
2019-05-25T03:19:43.708Z,1.50
2019-05-25T03:22:29.854Z,1.50
2019-05-25T03:25:15.814Z,1.30
2019-05-25T03:28:02.073Z,1.40
2019-05-25T03:30:48.191Z,1.03
2019-05-25T03:33:34.384Z,1.30
2019-05-25T03:36:20.845Z,1.40
2019-05-25T03:39:06.991Z,1.10
2019-05-25T03:41:52.856Z,1.30
2019-05-25T03:44:38.920Z,1.00
2019-05-25T03:47:24.443Z,1.27
2019-05-25T03:50:10.943Z,1.00
2019-05-25T03:52:56.985Z,1.20
2019-05-25T03:55:42.592Z,1.20
2019-05-25T03:58:28.700Z,1.10
2019-05-25T04:01:15.017Z,1.10
2019-05-25T04:04:01.083Z,1.20
2019-05-25T04:06:47.198Z,1.20
2019-05-25T04:09:33.062Z,1.30
2019-05-25T04:12:19.196Z,1.37
2019-05-25T04:15:05.352Z,1.20
2019-05-25T04:17:51.032Z,1.20
2019-05-25T04:20:37.260Z,1.20
2019-05-25T04:23:22.961Z,1.13
2019-05-25T04:26:22.112Z,1.17
2019-05-25T04:28:56.802Z,1.30
2019-05-25T04:31:42.846Z,1.13
2019-05-25T04:34:29.110Z,1.10
2019-05-25T04:37:15.172Z,1.40
2019-05-25T04:40:01.253Z,1.07
2019-05-25T04:42:47.545Z,1.10
2019-05-25T04:45:33.625Z,1.27
2019-05-25T04:48:19.724Z,1.20
2019-05-25T04:51:05.972Z,1.20
2019-05-25T04:53:52.072Z,1.27
2019-05-25T04:56:40.120Z,1.20
2019-05-25T04:59:25.862Z,1.23
2019-05-25T05:02:12.036Z,1.47
2019-05-25T05:04:58.103Z,0.93
2019-05-25T05:07:44.322Z,1.30
2019-05-25T05:10:30.521Z,1.10
2019-05-25T05:13:16.188Z,1.30
2019-05-25T05:16:02.443Z,1.10
2019-05-25T05:18:48.531Z,1.37
2019-05-25T05:21:34.781Z,1.30
2019-05-25T05:24:20.928Z,1.37
2019-05-25T05:27:07.069Z,1.20
2019-05-25T05:29:53.301Z,1.20
2019-05-25T05:32:39.054Z,1.20
2019-05-25T05:35:25.380Z,1.17
2019-05-25T05:38:11.465Z,1.23
2019-05-25T05:40:57.520Z,1.30
2019-05-25T05:43:44.271Z,1.40
2019-05-25T05:46:31.749Z,1.33
2019-05-25T05:49:17.940Z,1.10
2019-05-25T05:52:03.979Z,1.23
2019-05-25T05:54:51.329Z,1.33
2019-05-25T05:57:37.104Z,1.40
2019-05-25T06:00:23.268Z,1.30
2019-05-25T06:03:09.445Z,1.40
2019-05-25T06:05:55.536Z,1.70
2019-05-25T06:08:41.861Z,1.70
2019-05-25T06:11:27.805Z,1.57
2019-05-25T06:14:13.964Z,2.10
2019-05-25T06:17:00.012Z,2.13
2019-05-25T06:19:46.056Z,1.90
2019-05-25T06:22:32.012Z,2.30
2019-05-25T06:25:18.006Z,2.20
2019-05-25T06:28:04.136Z,2.20
2019-05-25T06:30:50.580Z,1.97
2019-05-25T06:33:36.601Z,2.40
2019-05-25T06:36:22.741Z,2.23
2019-05-25T06:39:08.697Z,2.03
2019-05-25T06:41:54.606Z,2.27
2019-05-25T06:44:40.801Z,2.00
2019-05-25T06:47:27.040Z,2.50
2019-05-25T06:50:13.122Z,2.43
2019-05-25T06:52:59.294Z,2.60
2019-05-25T06:55:45.743Z,2.80
2019-05-25T06:58:31.527Z,3.30
2019-05-25T07:01:17.880Z,3.50
2019-05-25T07:04:04.103Z,4.03
2019-05-25T07:06:50.281Z,3.50
2019-05-25T07:09:36.402Z,3.30
2019-05-25T07:12:22.482Z,3.60
2019-05-25T07:15:09.039Z,3.50
2019-05-25T07:17:54.748Z,3.90
2019-05-25T07:20:41.000Z,3.80
2019-05-25T07:23:27.072Z,3.83
2019-05-25T07:26:12.961Z,4.23
2019-05-25T07:28:58.884Z,4.00
2019-05-25T07:31:45.272Z,3.30
2019-05-25T07:34:31.330Z,3.63
2019-05-25T07:37:17.480Z,3.47
2019-05-25T07:40:03.980Z,3.40
2019-05-25T07:42:49.969Z,3.47
2019-05-25T07:45:35.990Z,3.87
2019-05-25T07:48:21.802Z,3.70
2019-05-25T07:51:08.017Z,3.30
2019-05-25T07:53:54.366Z,3.10
2019-05-25T07:56:40.464Z,3.40
2019-05-25T07:59:26.666Z,2.73
2019-05-25T08:02:12.661Z,3.13
2019-05-25T08:04:58.835Z,2.73
2019-05-25T08:07:44.808Z,2.70
2019-05-25T08:10:30.717Z,2.60
2019-05-25T08:13:16.675Z,2.70
2019-05-25T08:16:02.947Z,2.20
2019-05-25T08:18:49.211Z,2.40
2019-05-25T08:21:35.414Z,2.37
2019-05-25T08:24:21.551Z,2.20
2019-05-25T08:27:07.729Z,2.20
2019-05-25T08:29:53.872Z,2.03
2019-05-25T08:32:40.052Z,2.00
2019-05-25T08:35:26.099Z,1.67
2019-05-25T08:38:12.425Z,1.73
2019-05-25T08:40:58.425Z,1.50
2019-05-25T08:43:44.628Z,1.30
2019-05-25T08:46:30.745Z,1.30
2019-05-25T08:49:17.695Z,1.30
2019-05-25T08:52:05.944Z,1.37
2019-05-25T08:54:52.092Z,1.40
2019-05-25T08:57:38.336Z,0.90
2019-05-25T09:00:24.254Z,1.13
2019-05-25T09:03:10.452Z,1.50
2019-05-25T09:05:56.849Z,1.30
2019-05-25T09:08:42.777Z,1.63
2019-05-25T09:11:29.009Z,1.60
2019-05-25T09:14:15.160Z,1.90
2019-05-25T09:17:01.481Z,5.93
2019-05-25T09:19:48.132Z,9.83
2019-05-25T09:22:33.965Z,18.30
2019-05-25T09:25:20.334Z,8.53
2019-05-25T09:28:06.457Z,5.40
2019-05-25T09:30:52.688Z,2.87
2019-05-25T09:33:38.549Z,2.03
2019-05-25T09:36:24.324Z,1.60
2019-05-25T09:39:10.572Z,1.67
2019-05-25T09:41:56.720Z,1.70
2019-05-25T09:44:42.808Z,1.53
2019-05-25T09:47:29.057Z,1.60
2019-05-25T09:50:15.280Z,1.60
2019-05-25T09:53:01.162Z,1.73
2019-05-25T09:55:50.498Z,1.57
2019-05-25T09:58:36.638Z,1.60
2019-05-25T10:01:22.694Z,1.60
2019-05-25T10:04:09.005Z,1.50
2019-05-25T10:06:55.156Z,1.23
2019-05-25T10:09:41.124Z,1.50
2019-05-25T10:12:27.913Z,1.20
2019-05-25T10:15:14.540Z,1.30
2019-05-25T10:18:00.637Z,1.30
2019-05-25T10:20:46.951Z,1.17
2019-05-25T10:23:33.182Z,1.10
2019-05-25T10:26:22.888Z,1.30
2019-05-25T10:29:07.296Z,1.30
2019-05-25T10:31:53.222Z,1.20
2019-05-25T10:34:38.944Z,1.30
2019-05-25T10:37:25.259Z,1.40
2019-05-25T10:40:11.449Z,1.30
2019-05-25T10:42:57.523Z,1.30
2019-05-25T10:45:43.964Z,1.33
2019-05-25T10:48:29.876Z,1.10
2019-05-25T10:51:15.881Z,1.40
2019-05-25T10:54:02.924Z,1.50
2019-05-25T10:56:48.820Z,1.50
2019-05-25T10:59:34.597Z,1.63
2019-05-25T11:02:20.744Z,1.37
2019-05-25T11:05:08.222Z,1.20
2019-05-25T11:07:54.198Z,1.20
2019-05-25T11:10:40.249Z,1.60
2019-05-25T11:13:26.431Z,1.73
2019-05-25T11:16:12.684Z,1.20
2019-05-25T11:18:58.264Z,1.33
2019-05-25T11:21:44.536Z,1.50
2019-05-25T11:24:30.624Z,2.23
2019-05-25T11:27:16.586Z,1.50
2019-05-25T11:30:08.892Z,1.30
2019-05-25T11:32:51.581Z,1.70
2019-05-25T11:35:37.720Z,1.40
2019-05-25T11:38:23.880Z,1.50
2019-05-25T11:41:10.546Z,1.83
2019-05-25T11:43:56.717Z,1.77
2019-05-25T11:46:42.893Z,2.10
2019-05-25T11:49:28.524Z,1.43
2019-05-25T11:52:14.628Z,1.80
2019-05-25T11:55:00.396Z,1.60
2019-05-25T11:57:46.373Z,1.60
2019-05-25T12:00:32.196Z,1.80
2019-05-25T12:03:18.226Z,1.97
2019-05-25T12:06:04.234Z,1.70
2019-05-25T12:08:50.617Z,1.70
2019-05-25T12:11:36.764Z,1.80
2019-05-25T12:14:22.943Z,1.90
2019-05-25T12:17:09.343Z,1.60
2019-05-25T12:19:55.467Z,1.80
2019-05-25T12:22:41.441Z,2.07
2019-05-25T12:25:27.470Z,1.90
2019-05-25T12:28:13.690Z,2.00
2019-05-25T12:30:59.757Z,1.70
2019-05-25T12:33:45.990Z,1.60
2019-05-25T12:36:32.094Z,1.70
2019-05-25T12:39:18.196Z,1.90
2019-05-25T12:42:04.394Z,2.00
2019-05-25T12:44:50.368Z,2.23
2019-05-25T12:47:37.028Z,1.90
2019-05-25T12:50:23.324Z,1.77
2019-05-25T12:53:09.283Z,1.83
2019-05-25T12:55:55.445Z,2.00
2019-05-25T12:58:41.470Z,1.50
2019-05-25T13:01:27.744Z,1.63
2019-05-25T13:04:14.326Z,1.60
2019-05-25T13:07:00.517Z,1.50
2019-05-25T13:09:46.988Z,1.90
2019-05-25T13:12:32.797Z,1.70
2019-05-25T13:15:19.243Z,2.00
2019-05-25T13:18:05.384Z,1.60
2019-05-25T13:20:51.420Z,1.60
2019-05-25T13:23:38.167Z,1.70
2019-05-25T13:26:24.183Z,1.50
2019-05-25T13:29:10.568Z,1.60
2019-05-25T13:31:56.535Z,1.50
2019-05-25T13:34:44.009Z,1.33
2019-05-25T13:37:29.904Z,1.70
2019-05-25T13:40:16.271Z,1.30
2019-05-25T13:43:02.312Z,1.20
2019-05-25T13:45:48.334Z,1.40
2019-05-25T13:48:37.321Z,1.20
2019-05-25T13:51:23.463Z,1.20
2019-05-25T13:54:09.273Z,1.00
2019-05-25T13:56:55.540Z,1.20
2019-05-25T13:59:41.576Z,1.30
2019-05-25T14:02:27.914Z,1.10
2019-05-25T14:05:14.321Z,1.20
2019-05-25T14:08:00.316Z,1.20
2019-05-25T14:10:46.531Z,1.00
2019-05-25T14:13:32.364Z,1.30
2019-05-25T14:16:18.824Z,1.20
2019-05-25T14:19:04.790Z,1.27
2019-05-25T14:21:50.826Z,1.13
2019-05-25T14:24:37.682Z,1.30
2019-05-25T14:27:23.620Z,1.20
2019-05-25T14:30:09.592Z,1.30
2019-05-25T14:32:55.832Z,1.50
2019-05-25T14:35:42.242Z,1.00
2019-05-25T14:38:28.447Z,1.23
2019-05-25T14:41:15.742Z,1.20
2019-05-25T14:44:01.768Z,1.17
2019-05-25T14:46:47.873Z,1.13
2019-05-25T14:49:33.942Z,1.23
2019-05-25T14:52:20.178Z,1.17
2019-05-25T14:55:07.238Z,1.30
2019-05-25T14:57:53.574Z,1.03
2019-05-25T15:00:40.342Z,1.23
2019-05-25T15:03:30.983Z,1.50
2019-05-25T15:06:15.114Z,1.33
2019-05-25T15:09:02.298Z,1.10
2019-05-25T15:11:48.709Z,1.00
2019-05-25T15:14:34.701Z,1.00
2019-05-25T15:17:20.781Z,1.10
2019-05-25T15:20:07.387Z,1.10
2019-05-25T15:22:55.774Z,1.00
2019-05-25T15:25:41.937Z,1.00
2019-05-25T15:28:27.964Z,1.10
2019-05-25T15:31:28.651Z,1.00
2019-05-25T15:34:13.448Z,1.10
2019-05-25T15:37:05.731Z,1.20
2019-05-25T15:39:51.747Z,1.13
2019-05-25T15:42:37.891Z,1.00
2019-05-25T15:45:24.133Z,1.00
2019-05-25T15:48:46.052Z,1.00
2019-05-25T15:51:32.006Z,1.10
2019-05-25T15:54:18.048Z,1.23
2019-05-25T15:57:04.562Z,1.30
2019-05-25T15:59:51.776Z,1.30
2019-05-25T16:02:38.192Z,1.00
2019-05-25T16:05:28.064Z,1.23
2019-05-25T16:08:40.217Z,1.13
2019-05-25T16:11:33.586Z,1.00
2019-05-25T16:14:19.573Z,0.90
2019-05-25T16:17:05.742Z,1.10
2019-05-25T16:19:52.125Z,1.00
2019-05-25T16:22:39.658Z,1.13
2019-05-25T16:25:26.433Z,1.10
2019-05-25T16:28:14.581Z,1.10
2019-05-25T16:31:00.597Z,1.23
2019-05-25T16:33:51.425Z,1.20
2019-05-25T16:36:40.976Z,1.17
2019-05-25T16:39:27.848Z,1.20
2019-05-25T16:42:28.104Z,1.20
2019-05-25T16:45:15.575Z,1.20
2019-05-25T16:48:01.693Z,1.00
2019-05-25T16:50:49.340Z,1.20
2019-05-25T16:53:39.592Z,1.30
2019-05-25T16:56:26.393Z,1.30
2019-05-25T16:59:12.714Z,1.10
2019-05-25T17:01:58.919Z,1.30
2019-05-25T17:04:44.965Z,1.20
2019-05-25T17:07:34.285Z,1.17
2019-05-25T17:10:20.234Z,1.30
2019-05-25T17:13:06.366Z,1.30
2019-05-25T17:15:52.476Z,1.30
2019-05-25T17:18:40.439Z,1.23
2019-05-25T17:21:26.893Z,1.03
2019-05-25T17:24:59.352Z,1.10
2019-05-25T17:27:29.245Z,1.30
2019-05-25T17:30:16.630Z,1.30
2019-05-25T17:33:44.589Z,1.20
2019-05-25T17:36:19.531Z,1.20
2019-05-25T17:39:06.070Z,1.20
2019-05-25T17:41:52.308Z,1.40
2019-05-25T17:44:38.863Z,1.20
2019-05-25T17:47:34.389Z,1.37
2019-05-25T17:50:20.977Z,1.50
2019-05-25T17:53:06.975Z,1.67
2019-05-25T17:55:53.248Z,1.53
2019-05-25T17:58:54.225Z,1.83
2019-05-25T18:01:40.560Z,1.73
2019-05-25T18:04:26.712Z,1.90
2019-05-25T18:07:12.886Z,1.60
2019-05-25T18:10:00.076Z,1.57
2019-05-25T18:12:47.474Z,1.60
2019-05-25T18:15:33.649Z,1.60
2019-05-25T18:18:19.941Z,1.60
2019-05-25T18:21:05.995Z,1.50
2019-05-25T18:23:52.184Z,1.50
2019-05-25T18:26:41.530Z,1.30
2019-05-25T18:29:27.858Z,1.53
2019-05-25T18:32:13.906Z,1.70
2019-05-25T18:35:00.113Z,1.60
2019-05-25T18:37:46.340Z,1.47
2019-05-25T18:40:32.605Z,1.60
2019-05-25T18:43:18.690Z,1.60
2019-05-25T18:46:04.785Z,1.83
2019-05-25T18:48:51.413Z,1.70
2019-05-25T18:51:37.481Z,1.70
2019-05-25T18:54:23.648Z,1.63
2019-05-25T18:57:09.930Z,1.80
2019-05-25T18:59:55.915Z,1.73
2019-05-25T19:02:42.042Z,1.50
2019-05-25T19:05:28.206Z,1.73
2019-05-25T19:08:14.297Z,1.90
2019-05-25T19:11:00.484Z,1.77
2019-05-25T19:13:46.403Z,1.73
2019-05-25T19:16:32.591Z,1.90
2019-05-25T19:19:18.793Z,1.60
2019-05-25T19:22:04.749Z,1.90
2019-05-25T19:24:50.850Z,1.60
2019-05-25T19:27:37.142Z,1.80
2019-05-25T19:30:23.194Z,1.70
2019-05-25T19:33:09.348Z,1.40
2019-05-25T19:35:55.445Z,1.50
2019-05-25T19:38:41.461Z,1.67
2019-05-25T19:41:27.729Z,1.63
2019-05-25T19:44:13.914Z,1.27
2019-05-25T19:47:00.211Z,1.40
2019-05-25T19:49:50.435Z,1.27
2019-05-25T19:52:36.488Z,1.50
2019-05-25T19:55:22.572Z,1.40
2019-05-25T19:58:09.224Z,1.50
2019-05-25T20:00:55.116Z,1.23
2019-05-25T20:03:41.147Z,1.20
2019-05-25T20:06:27.296Z,1.37
2019-05-25T20:09:13.413Z,1.30
2019-05-25T20:11:59.633Z,1.30
2019-05-25T20:14:45.913Z,1.53
2019-05-25T20:17:31.929Z,1.62
2019-05-25T20:20:18.108Z,1.60
2019-05-25T20:23:04.294Z,1.40
2019-05-25T20:25:50.690Z,1.47
2019-05-25T20:28:36.605Z,1.40
2019-05-25T20:31:22.580Z,1.57
2019-05-25T20:34:08.660Z,1.70
2019-05-25T20:36:55.125Z,1.73
2019-05-25T20:39:41.037Z,1.50
2019-05-25T20:42:27.348Z,1.43
2019-05-25T20:45:13.421Z,1.40
2019-05-25T20:47:59.368Z,1.83
2019-05-25T20:50:45.643Z,1.53
2019-05-25T20:53:31.887Z,1.63
2019-05-25T20:56:17.866Z,1.70
2019-05-25T20:59:07.533Z,1.70
2019-05-25T21:01:54.045Z,1.60
2019-05-25T21:04:40.342Z,1.50
2019-05-25T21:07:26.489Z,1.50
2019-05-25T21:10:12.805Z,1.67
2019-05-25T21:12:59.113Z,1.83
2019-05-25T21:15:51.443Z,1.53
2019-05-25T21:18:37.560Z,1.87
2019-05-25T21:21:23.542Z,1.70
2019-05-25T21:24:09.669Z,1.70
2019-05-25T21:26:55.914Z,1.67
2019-05-25T21:29:41.940Z,1.80
2019-05-25T21:32:28.065Z,1.70
2019-05-25T21:35:14.324Z,2.13
2019-05-25T21:38:00.408Z,1.87
2019-05-25T21:40:46.583Z,2.07
2019-05-25T21:43:32.872Z,1.90
2019-05-25T21:46:19.153Z,2.00
2019-05-25T21:49:05.017Z,2.00
2019-05-25T21:51:51.217Z,2.03
2019-05-25T21:54:37.448Z,2.10
2019-05-25T21:57:23.536Z,2.00
2019-05-25T22:00:11.528Z,2.20
2019-05-25T22:02:57.749Z,2.40
2019-05-25T22:05:44.026Z,2.40
2019-05-25T22:08:30.137Z,2.03
2019-05-25T22:11:16.592Z,2.07
2019-05-25T22:14:02.892Z,2.13
2019-05-25T22:16:49.051Z,2.33
2019-05-25T22:19:35.039Z,2.40
2019-05-25T22:22:21.365Z,2.30
2019-05-25T22:25:07.609Z,2.33
2019-05-25T22:27:53.654Z,1.90
2019-05-25T22:30:39.700Z,2.30
2019-05-25T22:33:25.626Z,2.50
2019-05-25T22:36:11.766Z,2.20
2019-05-25T22:38:58.037Z,2.30
2019-05-25T22:41:44.111Z,2.60
2019-05-25T22:44:38.761Z,2.40
2019-05-25T22:47:21.275Z,2.07
2019-05-25T22:50:07.276Z,2.60
2019-05-25T22:52:53.287Z,2.30
2019-05-25T22:55:39.321Z,2.10
2019-05-25T22:58:25.484Z,2.10
2019-05-25T23:01:11.800Z,2.23
2019-05-25T23:03:57.993Z,2.20
2019-05-25T23:06:57.165Z,2.40
2019-05-25T23:09:31.673Z,2.40
2019-05-25T23:12:17.764Z,2.20
2019-05-25T23:15:04.615Z,2.13
2019-05-25T23:17:50.491Z,2.10
2019-05-25T23:20:36.952Z,2.07
2019-05-25T23:23:23.283Z,2.30
2019-05-25T23:26:09.564Z,2.50
2019-05-25T23:28:55.617Z,2.50
2019-05-25T23:31:41.781Z,2.30
2019-05-25T23:34:29.185Z,2.13
2019-05-25T23:37:15.601Z,2.47
2019-05-25T23:40:01.712Z,2.50
2019-05-25T23:42:49.343Z,2.33
2019-05-25T23:45:35.627Z,2.30
2019-05-25T23:48:21.814Z,2.30
2019-05-25T23:53:46.946Z,2.30
